createdAt,value
2022-11-08T00:00:14.774Z,100433.78
2022-11-08T00:02:42.787Z,100428.53
2022-11-08T00:05:29.037Z,100426.69
2022-11-08T00:08:15.530Z,100430.34
2022-11-08T00:11:02.278Z,100427.53
2022-11-08T00:13:48.685Z,100427.53
2022-11-08T00:16:16.170Z,100424.94
2022-11-08T00:18:44.170Z,100433.63
2022-11-08T00:21:11.872Z,100429.41
2022-11-08T00:23:40.105Z,100427.78
2022-11-08T00:26:08.054Z,100430.50
2022-11-08T00:28:35.142Z,100437.31
2022-11-08T00:31:07.056Z,100431.50
2022-11-08T00:33:34.375Z,100429.87
2022-11-08T00:36:01.387Z,100424.25
2022-11-08T00:38:28.171Z,100432.16
2022-11-08T00:40:55.224Z,100441.50
2022-11-08T00:43:22.106Z,100431.78
2022-11-08T00:45:48.931Z,100432.88
2022-11-08T00:48:16.642Z,100429.19
2022-11-08T00:50:43.610Z,100426.59
2022-11-08T00:53:10.305Z,100428.28
2022-11-08T00:55:37.277Z,100434.34
2022-11-08T00:58:04.071Z,100431.34
2022-11-08T01:00:30.804Z,100433.91
2022-11-08T01:03:16.592Z,100425.06
2022-11-08T01:05:43.266Z,100425.41
2022-11-08T01:08:10.311Z,100424.22
2022-11-08T01:10:37.110Z,100431.09
2022-11-08T01:13:04.704Z,100428.59
2022-11-08T01:15:36.499Z,100428.59
2022-11-08T01:18:03.986Z,100424.13
2022-11-08T01:20:30.947Z,100426.09
2022-11-08T01:22:57.638Z,100423.56
2022-11-08T01:25:24.383Z,100421.94
2022-11-08T01:27:51.612Z,100413.87
2022-11-08T01:30:19.685Z,100417.44
2022-11-08T01:32:46.404Z,100416.75
2022-11-08T01:35:13.487Z,100422.63
2022-11-08T01:37:40.221Z,100420.47
2022-11-08T01:40:07.308Z,100421.66
2022-11-08T01:42:34.786Z,100430.91
2022-11-08T01:45:02.275Z,100421.88
2022-11-08T01:47:28.989Z,100412.88
2022-11-08T01:49:56.949Z,100416.94
2022-11-08T01:52:33.905Z,100420.13
2022-11-08T01:55:01.228Z,100410.00
2022-11-08T01:57:32.070Z,100414.03
2022-11-08T01:59:59.027Z,100412.81
2022-11-08T02:02:26.397Z,100414.09
2022-11-08T02:04:53.386Z,100410.50
2022-11-08T02:07:20.118Z,100405.28
2022-11-08T02:09:47.608Z,100401.00
2022-11-08T02:12:15.592Z,100399.31
2022-11-08T02:14:42.302Z,100390.34
2022-11-08T02:17:10.161Z,100407.78
2022-11-08T02:19:38.742Z,100407.19
2022-11-08T02:22:06.199Z,100404.53
2022-11-08T02:24:33.479Z,100399.19
2022-11-08T02:27:01.381Z,100396.69
2022-11-08T02:29:32.181Z,100401.66
2022-11-08T02:31:59.433Z,100403.91
2022-11-08T02:34:30.920Z,100408.84
2022-11-08T02:36:57.683Z,100409.25
2022-11-08T02:39:25.378Z,100402.97
2022-11-08T02:41:52.930Z,100406.13
2022-11-08T02:44:19.625Z,100403.47
2022-11-08T02:46:46.265Z,100409.25
2022-11-08T02:49:14.352Z,100411.97
2022-11-08T02:51:41.693Z,100415.16
2022-11-08T02:54:08.409Z,100411.38
2022-11-08T02:56:35.419Z,100412.75
2022-11-08T02:59:02.318Z,100420.22
2022-11-08T03:01:29.736Z,100416.91
2022-11-08T03:03:56.919Z,100415.66
2022-11-08T03:06:25.096Z,100414.69
2022-11-08T03:08:51.936Z,100410.47
2022-11-08T03:26:46.086Z,100420.19
2022-11-08T03:29:13.826Z,100423.53
2022-11-08T03:31:40.619Z,100421.16
2022-11-08T03:34:07.298Z,100429.53
2022-11-08T03:36:34.664Z,100428.25
2022-11-08T03:39:01.372Z,100426.34
2022-11-08T03:41:28.267Z,100428.16
2022-11-08T03:43:55.713Z,100425.16
2022-11-08T03:46:22.513Z,100435.88
2022-11-08T03:48:49.322Z,100435.19
2022-11-08T03:51:16.978Z,100430.72
2022-11-08T03:53:43.835Z,100433.34
2022-11-08T03:56:10.780Z,100433.56
2022-11-08T03:58:37.691Z,100435.66
2022-11-08T04:01:05.780Z,100429.91
2022-11-08T04:03:32.998Z,100425.56
2022-11-08T04:06:00.969Z,100428.16
2022-11-08T04:08:28.132Z,100431.50
2022-11-08T04:10:56.091Z,100431.59
2022-11-08T04:13:41.717Z,100432.22
2022-11-08T04:16:09.480Z,100424.72
2022-11-08T04:18:57.028Z,100428.97
2022-11-08T04:21:24.029Z,100425.25
2022-11-08T04:23:52.293Z,100427.59
2022-11-08T04:26:19.450Z,100425.72
2022-11-08T04:28:46.415Z,100423.34
2022-11-08T04:31:16.324Z,100421.69
2022-11-08T04:33:43.462Z,100420.31
2022-11-08T04:36:11.628Z,100421.69
2022-11-08T04:38:38.450Z,100412.97
2022-11-08T04:41:07.338Z,100419.50
2022-11-08T04:43:35.042Z,100418.25
2022-11-08T04:46:02.694Z,100413.28
2022-11-08T04:48:30.502Z,100417.41
2022-11-08T04:51:04.262Z,100411.84
2022-11-08T04:53:30.997Z,100410.06
2022-11-08T04:56:02.029Z,100409.69
2022-11-08T04:58:29.451Z,100402.28
2022-11-08T05:00:59.245Z,100406.28
2022-11-08T05:03:26.339Z,100411.31
2022-11-08T05:05:53.046Z,100407.88
2022-11-08T05:08:20.703Z,100409.97
2022-11-08T05:10:47.837Z,100407.88
2022-11-08T05:13:15.619Z,100403.22
2022-11-08T05:15:42.370Z,100413.50
2022-11-08T05:18:09.403Z,100415.72
2022-11-08T05:20:55.302Z,100410.41
2022-11-08T05:23:25.973Z,100409.72
2022-11-08T05:25:53.869Z,100424.50
2022-11-08T05:28:21.020Z,100422.91
2022-11-08T05:30:54.878Z,100425.12
2022-11-08T05:33:21.705Z,100425.78
2022-11-08T05:35:48.803Z,100430.37
2022-11-08T05:38:15.819Z,100425.75
2022-11-08T05:40:42.883Z,100432.56
2022-11-08T05:43:09.866Z,100435.91
2022-11-08T05:45:37.087Z,100431.31
2022-11-08T05:48:04.162Z,100433.50
2022-11-08T05:50:34.145Z,100429.59
2022-11-08T05:53:04.898Z,100432.25
2022-11-08T05:55:31.825Z,100435.97
2022-11-08T05:58:00.124Z,100432.38
2022-11-08T06:00:26.835Z,100436.47
2022-11-08T06:02:53.759Z,100432.75
2022-11-08T06:05:21.083Z,100432.84
2022-11-08T06:07:47.732Z,100429.38
2022-11-08T06:10:14.754Z,100432.41
2022-11-08T06:12:41.530Z,100437.31
2022-11-08T06:15:08.566Z,100446.44
2022-11-08T06:17:35.729Z,100446.44
